Time;durP1;ratioP1;P1;durP2;ratioP2;P2;SDS_P1;SDS_P2;PMS_P1;PMS_P2;Temp;Humidity;BMP_temperature;BMP_pressure;BME280_temperature;BME280_humidity;BME280_pressure;Samples;Min_cycle;Max_cycle;Signal;HPM_P1;HPM_P2
2023/04/25 00:02:00;;;;;;;12.00;3.47;;;6.60;99.90;;;;;;5051891;28;20051;-79
2023/04/25 00:04:27;;;;;;;15.55;3.72;;;6.60;99.90;;;;;;5050423;28;20071;-80
2023/04/25 00:06:55;;;;;;;16.73;4.00;;;6.60;99.90;;;;;;5051627;28;20049;-80
2023/04/25 00:09:22;;;;;;;14.38;3.75;;;6.60;99.90;;;;;;5050730;28;20374;-79
2023/04/25 00:11:48;;;;;;;15.73;3.70;;;6.60;99.90;;;;;;5051949;28;20051;-79
2023/04/25 00:14:13;;;;;;;15.30;3.55;;;6.60;99.90;;;;;;5050309;28;20078;-80
2023/04/25 00:16:40;;;;;;;15.73;3.85;;;6.50;99.90;;;;;;5050337;28;20043;-79
2023/04/25 00:19:07;;;;;;;10.85;3.45;;;6.50;99.90;;;;;;5051886;28;20063;-79
2023/04/25 00:21:33;;;;;;;20.77;3.67;;;6.50;99.90;;;;;;5051800;28;20075;-79
2023/04/25 00:23:59;;;;;;;12.23;3.22;;;6.50;99.90;;;;;;5055676;28;20032;-78
2023/04/25 00:26:24;;;;;;;13.05;3.63;;;6.50;99.90;;;;;;5055584;28;20049;-79
2023/04/25 00:28:50;;;;;;;13.35;3.65;;;6.50;99.90;;;;;;5054424;28;20045;-80
2023/04/25 00:31:16;;;;;;;21.25;3.60;;;6.50;99.90;;;;;;5054806;28;20033;-80
2023/04/25 00:33:41;;;;;;;9.70;3.13;;;6.50;99.90;;;;;;5055723;28;20041;-80
2023/04/25 00:36:07;;;;;;;11.57;2.88;;;6.50;99.90;;;;;;5054368;28;20037;-79
2023/04/25 00:38:33;;;;;;;16.25;3.60;;;6.50;99.90;;;;;;5054981;28;20040;-79
2023/04/25 00:40:58;;;;;;;15.30;2.85;;;6.40;99.90;;;;;;5055509;28;20045;-79
2023/04/25 00:43:29;;;;;;;15.93;3.38;;;6.40;99.90;;;;;;5054196;28;20057;-79
2023/04/25 00:45:57;;;;;;;13.98;2.83;;;6.40;99.90;;;;;;5055766;28;20132;-79
2023/04/25 00:48:22;;;;;;;14.50;3.92;;;6.40;99.90;;;;;;5053828;28;20045;-80
2023/04/25 00:50:53;;;;;;;11.00;2.63;;;6.40;99.90;;;;;;5054264;28;20564;-80
2023/04/25 00:53:23;;;;;;;8.23;2.38;;;6.30;99.90;;;;;;5055411;28;20418;-79
2023/04/25 00:55:50;;;;;;;13.00;2.40;;;6.30;99.90;;;;;;5061544;28;20472;-79
2023/04/25 00:58:17;;;;;;;16.08;3.00;;;6.30;99.90;;;;;;5062189;28;20447;-80
2023/04/25 01:00:45;;;;;;;11.35;2.95;;;6.30;99.90;;;;;;5055352;28;20408;-80
2023/04/25 01:03:10;;;;;;;16.98;3.08;;;6.20;99.90;;;;;;5055747;28;20036;-80
2023/04/25 01:05:36;;;;;;;12.73;2.88;;;6.20;99.90;;;;;;5053673;28;20058;-79
2023/04/25 01:08:02;;;;;;;11.55;2.53;;;6.20;99.90;;;;;;5054692;28;20119;-80
2023/04/25 01:10:27;;;;;;;15.32;2.45;;;6.20;99.90;;;;;;5055082;28;20044;-80
2023/04/25 01:12:53;;;;;;;13.15;2.65;;;6.20;99.90;;;;;;5053833;28;20036;-80
2023/04/25 01:15:18;;;;;;;12.07;2.40;;;6.10;99.90;;;;;;5053362;28;20064;-80
2023/04/25 01:17:44;;;;;;;9.23;2.15;;;6.10;99.90;;;;;;5053426;28;20047;-80
2023/04/25 01:20:11;;;;;;;10.73;2.28;;;6.10;99.90;;;;;;5053510;28;20052;-80
2023/04/25 01:22:37;;;;;;;10.52;2.30;;;6.10;99.90;;;;;;5054877;28;20071;-80
2023/04/25 01:25:04;;;;;;;11.18;2.20;;;6.10;99.90;;;;;;5053243;28;20037;-80
2023/04/25 01:27:30;;;;;;;19.95;2.92;;;6.10;99.90;;;;;;5052945;28;20056;-80
2023/04/25 01:29:56;;;;;;;9.80;2.17;;;6.10;99.90;;;;;;5053489;28;20040;-80
2023/04/25 01:32:23;;;;;;;10.98;2.53;;;6.10;99.90;;;;;;5052979;28;20051;-81
2023/04/25 01:34:49;;;;;;;8.20;2.40;;;6.00;99.90;;;;;;5052734;28;20078;-80
2023/04/25 01:37:14;;;;;;;10.57;2.13;;;6.10;99.90;;;;;;5052924;28;20041;-80
2023/04/25 01:39:40;;;;;;;13.00;2.47;;;6.00;99.90;;;;;;5052984;28;20055;-80
2023/04/25 01:42:06;;;;;;;9.13;2.15;;;6.10;99.90;;;;;;5052821;28;20052;-80
2023/04/25 01:44:32;;;;;;;10.85;2.20;;;6.00;99.90;;;;;;5054229;28;20040;-80
2023/04/25 01:46:57;;;;;;;9.18;2.17;;;6.00;99.90;;;;;;5054369;28;20068;-81
2023/04/25 01:49:23;;;;;;;8.15;2.05;;;6.00;99.90;;;;;;5054292;28;20405;-81
2023/04/25 01:51:49;;;;;;;7.88;2.80;;;6.00;99.90;;;;;;5053199;28;20096;-81
2023/04/25 01:54:15;;;;;;;11.43;2.20;;;6.00;99.90;;;;;;5054375;28;20041;-82
2023/04/25 01:56:40;;;;;;;8.98;2.30;;;5.90;99.90;;;;;;5067545;28;20037;-82
2023/04/25 01:59:06;;;;;;;8.77;1.92;;;5.90;99.90;;;;;;5052912;28;20041;-81
2023/04/25 02:01:32;;;;;;;9.35;1.83;;;5.90;99.90;;;;;;5054208;28;20519;-81
2023/04/25 02:03:58;;;;;;;9.68;2.55;;;5.90;99.90;;;;;;5052703;28;20029;-81
2023/04/25 02:06:23;;;;;;;11.05;2.50;;;5.90;99.90;;;;;;5052478;28;20051;-81
2023/04/25 02:08:49;;;;;;;9.25;2.20;;;5.90;99.90;;;;;;5051917;28;20091;-82
2023/04/25 02:11:14;;;;;;;12.00;2.13;;;5.90;99.90;;;;;;5051640;28;20040;-82
2023/04/25 02:13:40;;;;;;;13.88;2.13;;;5.90;99.90;;;;;;5052037;28;20408;-82
2023/04/25 02:16:06;;;;;;;8.27;2.28;;;5.90;99.90;;;;;;5051887;28;20049;-82
2023/04/25 02:18:31;;;;;;;12.80;2.13;;;5.90;99.90;;;;;;5051761;28;20041;-82
2023/04/25 02:20:59;;;;;;;13.48;3.28;;;5.90;99.90;;;;;;5052095;28;20115;-81
2023/04/25 02:23:25;;;;;;;9.35;1.90;;;5.90;99.90;;;;;;5052631;28;20045;-82
2023/04/25 02:25:51;;;;;;;9.77;2.20;;;5.90;99.90;;;;;;5052295;28;20064;-81
2023/04/25 02:28:17;;;;;;;9.63;2.33;;;5.90;99.90;;;;;;5053262;28;20045;-81
2023/04/25 02:30:42;;;;;;;12.20;2.53;;;5.80;99.90;;;;;;5054222;28;20048;-82
2023/04/25 02:33:08;;;;;;;13.45;2.80;;;5.90;99.90;;;;;;5052609;28;20115;-81
2023/04/25 02:35:33;;;;;;;10.65;2.50;;;5.90;99.90;;;;;;5052003;28;20409;-81
2023/04/25 02:37:59;;;;;;;15.90;2.33;;;5.80;99.90;;;;;;5051607;28;20424;-81
2023/04/25 02:40:24;;;;;;;11.55;2.03;;;5.90;99.90;;;;;;5051798;28;20054;-81
2023/04/25 02:42:51;;;;;;;9.82;2.08;;;5.90;99.90;;;;;;5051836;28;20045;-81
2023/04/25 02:45:16;;;;;;;13.65;2.58;;;5.80;99.90;;;;;;5050760;28;20060;-82
2023/04/25 02:47:42;;;;;;;12.82;2.10;;;5.80;99.90;;;;;;5051453;28;20049;-82
2023/04/25 02:50:08;;;;;;;11.73;2.30;;;5.80;99.90;;;;;;5053218;28;20037;-82
2023/04/25 02:52:33;;;;;;;10.35;2.15;;;5.80;99.90;;;;;;5051924;28;20072;-82
2023/04/25 02:54:59;;;;;;;12.25;1.98;;;5.80;99.90;;;;;;5050591;28;20111;-82
2023/04/25 02:57:24;;;;;;;6.20;1.80;;;5.80;99.90;;;;;;5066511;28;20127;-82
2023/04/25 02:59:50;;;;;;;12.18;2.17;;;5.80;99.90;;;;;;5050610;28;20037;-82
2023/04/25 03:02:16;;;;;;;8.43;2.28;;;5.80;99.90;;;;;;5050866;28;20400;-82
2023/04/25 03:04:41;;;;;;;9.48;2.50;;;5.80;99.90;;;;;;5051670;28;20041;-82
2023/04/25 03:07:07;;;;;;;11.27;2.13;;;5.80;99.90;;;;;;5050728;28;20171;-82
2023/04/25 03:09:32;;;;;;;11.43;1.75;;;5.80;99.90;;;;;;5052230;28;20033;-83
2023/04/25 03:11:58;;;;;;;7.43;1.90;;;5.80;99.90;;;;;;5050885;28;20081;-82
2023/04/25 03:14:23;;;;;;;13.70;2.83;;;5.70;99.90;;;;;;5050750;28;20375;-82
2023/04/25 03:16:49;;;;;;;10.73;1.88;;;5.70;99.90;;;;;;5050828;28;20052;-82
2023/04/25 03:19:16;;;;;;;8.48;2.05;;;5.70;99.90;;;;;;5050402;28;20435;-82
2023/04/25 03:21:43;;;;;;;9.10;1.90;;;5.70;99.90;;;;;;5050944;28;20048;-82
2023/04/25 03:24:10;;;;;;;8.32;1.95;;;5.60;99.90;;;;;;5051595;28;20045;-82
2023/04/25 03:26:36;;;;;;;11.73;1.98;;;5.60;99.90;;;;;;5050617;28;20041;-83
2023/04/25 03:29:02;;;;;;;5.80;1.35;;;5.50;99.90;;;;;;5052590;28;20048;-82
2023/04/25 03:31:27;;;;;;;10.60;1.90;;;5.50;99.90;;;;;;5051972;28;20048;-82
2023/04/25 03:33:53;;;;;;;6.60;1.88;;;5.40;99.90;;;;;;5052140;28;20048;-82
2023/04/25 03:36:18;;;;;;;6.75;1.75;;;5.40;99.90;;;;;;5052207;28;20044;-82
2023/04/25 03:38:44;;;;;;;4.70;1.30;;;5.30;99.90;;;;;;5051573;28;20120;-82
2023/04/25 03:41:09;;;;;;;10.43;2.58;;;5.20;99.90;;;;;;5050534;28;20115;-82
2023/04/25 03:43:35;;;;;;;9.43;1.90;;;5.20;99.90;;;;;;5050708;28;20040;-82
2023/04/25 03:46:01;;;;;;;10.13;2.10;;;5.20;99.90;;;;;;5049893;28;20077;-82
2023/04/25 03:48:27;;;;;;;6.85;1.50;;;5.10;99.90;;;;;;5049793;28;20509;-82
2023/04/25 03:50:53;;;;;;;8.35;2.00;;;5.00;99.90;;;;;;5050594;28;20041;-82
2023/04/25 03:53:19;;;;;;;9.27;2.22;;;5.00;99.90;;;;;;5050090;28;20094;-82
2023/04/25 03:55:45;;;;;;;11.52;1.85;;;4.90;99.90;;;;;;5055687;28;20503;-82
2023/04/25 03:58:10;;;;;;;7.30;2.08;;;4.90;99.90;;;;;;5058278;28;20378;-82
2023/04/25 04:00:36;;;;;;;5.78;2.10;;;4.80;99.90;;;;;;5051616;28;20075;-82
2023/04/25 04:03:02;;;;;;;7.53;1.80;;;4.70;99.90;;;;;;5051217;28;20098;-83
2023/04/25 04:05:28;;;;;;;11.27;2.55;;;4.80;99.90;;;;;;5050023;28;20169;-82
2023/04/25 04:07:54;;;;;;;7.00;1.90;;;4.70;99.90;;;;;;5049914;28;20044;-82
2023/04/25 04:10:19;;;;;;;8.43;2.33;;;4.70;99.90;;;;;;5050257;28;20044;-82
2023/04/25 04:12:45;;;;;;;8.10;1.90;;;4.70;99.90;;;;;;5050213;28;20041;-83
2023/04/25 04:15:11;;;;;;;11.32;2.63;;;4.70;99.90;;;;;;5049736;28;20069;-82
2023/04/25 04:17:37;;;;;;;9.73;2.08;;;4.70;99.90;;;;;;5050004;28;20112;-82
2023/04/25 04:20:03;;;;;;;8.90;1.88;;;4.60;99.90;;;;;;5051588;28;20044;-82
2023/04/25 04:22:29;;;;;;;9.93;1.75;;;4.60;99.90;;;;;;5050422;28;20524;-82
2023/04/25 04:24:56;;;;;;;8.70;2.17;;;4.60;99.90;;;;;;5050410;28;20051;-82
2023/04/25 04:27:22;;;;;;;6.30;1.60;;;4.60;99.90;;;;;;5049532;28;20052;-83
2023/04/25 04:29:48;;;;;;;8.65;1.80;;;4.50;99.90;;;;;;5049636;28;20033;-83
2023/04/25 04:32:15;;;;;;;13.23;1.50;;;4.50;99.90;;;;;;5049964;28;20513;-83
2023/04/25 04:34:41;;;;;;;7.40;1.90;;;4.50;99.90;;;;;;5050745;28;20044;-83
2023/04/25 04:37:06;;;;;;;8.40;1.90;;;4.40;99.90;;;;;;5050994;28;20108;-83
2023/04/25 04:39:36;;;;;;;8.93;2.08;;;4.40;99.90;;;;;;5049195;28;20478;-83
2023/04/25 04:42:01;;;;;;;11.60;3.17;;;4.40;99.90;;;;;;5049829;28;20150;-83
2023/04/25 04:44:28;;;;;;;11.18;1.83;;;4.40;99.90;;;;;;5050514;28;20064;-83
2023/04/25 04:46:54;;;;;;;7.55;1.77;;;4.50;99.90;;;;;;5050577;28;20504;-83
2023/04/25 04:49:20;;;;;;;10.40;2.03;;;4.40;99.90;;;;;;5049413;28;20062;-83
2023/04/25 04:51:46;;;;;;;9.27;2.33;;;4.60;99.90;;;;;;5050618;28;20373;-83
2023/04/25 04:54:12;;;;;;;8.00;1.63;;;4.40;99.90;;;;;;5050543;28;20081;-83
2023/04/25 04:56:38;;;;;;;10.60;2.58;;;4.50;99.90;;;;;;5062545;28;20133;-83
2023/04/25 04:59:03;;;;;;;10.15;2.55;;;4.50;99.90;;;;;;5033231;28;20380;-83
2023/04/25 05:01:32;;;;;;;10.27;1.85;;;4.50;99.90;;;;;;5049128;28;20099;-83
2023/04/25 05:04:00;;;;;;;10.13;1.80;;;4.50;99.90;;;;;;5049208;28;20037;-83
2023/04/25 05:06:26;;;;;;;8.82;1.65;;;4.60;99.90;;;;;;5049075;28;20045;-84
2023/04/25 05:08:52;;;;;;;9.82;2.28;;;4.60;99.90;;;;;;5053740;28;20033;-83
2023/04/25 05:11:18;;;;;;;9.75;1.95;;;4.60;99.90;;;;;;5052895;28;20044;-84
2023/04/25 05:13:45;;;;;;;10.77;2.75;;;4.70;99.90;;;;;;5054064;28;20075;-84
2023/04/25 05:16:11;;;;;;;5.93;2.13;;;4.70;99.90;;;;;;5052559;28;20052;-84
2023/04/25 05:18:37;;;;;;;11.52;2.08;;;4.80;99.90;;;;;;5053762;28;20041;-84
2023/04/25 05:21:02;;;;;;;9.93;1.90;;;4.80;99.90;;;;;;5052544;28;20112;-84
2023/04/25 05:23:29;;;;;;;8.15;2.00;;;4.90;99.90;;;;;;5052601;28;20455;-83
2023/04/25 05:25:55;;;;;;;13.40;1.98;;;4.90;99.90;;;;;;5052932;28;20045;-84
2023/04/25 05:28:21;;;;;;;7.50;1.98;;;4.90;99.90;;;;;;5053059;28;20048;-84
2023/04/25 05:30:46;;;;;;;10.77;2.58;;;4.80;99.90;;;;;;5053622;28;20037;-84
2023/04/25 05:33:12;;;;;;;8.57;2.15;;;4.90;99.90;;;;;;5052337;28;20033;-84
2023/04/25 05:35:38;;;;;;;9.00;1.95;;;4.90;99.90;;;;;;5053622;28;20536;-84
2023/04/25 05:38:03;;;;;;;7.45;1.85;;;4.90;99.90;;;;;;5053200;28;20044;-84
2023/04/25 05:40:29;;;;;;;11.43;2.00;;;5.00;99.90;;;;;;5053589;28;20040;-84
2023/04/25 05:42:54;;;;;;;7.50;2.33;;;5.10;99.90;;;;;;5053217;28;20151;-84
2023/04/25 05:45:20;;;;;;;7.80;1.75;;;5.20;99.90;;;;;;5052415;28;20048;-84
2023/04/25 05:47:45;;;;;;;8.02;1.70;;;5.20;99.90;;;;;;5052410;28;20515;-84
2023/04/25 05:50:11;;;;;;;8.85;2.08;;;5.30;99.90;;;;;;5052231;28;20041;-84
2023/04/25 05:52:36;;;;;;;9.80;1.60;;;5.40;99.90;;;;;;5052106;28;20415;-84
2023/04/25 05:55:02;;;;;;;6.82;1.67;;;5.50;99.90;;;;;;5053291;28;20044;-84
2023/04/25 05:57:28;;;;;;;7.78;2.08;;;5.70;99.90;;;;;;5068789;28;20029;-85
2023/04/25 05:59:54;;;;;;;9.75;2.03;;;5.80;99.90;;;;;;5051911;28;20485;-85
2023/04/25 06:02:21;;;;;;;13.07;1.90;;;5.80;99.90;;;;;;5052027;28;20040;-85
2023/04/25 06:04:47;;;;;;;6.95;2.22;;;5.90;99.90;;;;;;5051813;28;20041;-85
2023/04/25 06:07:13;;;;;;;8.15;1.75;;;5.80;99.90;;;;;;5051516;28;20049;-85
2023/04/25 06:09:39;;;;;;;6.68;2.20;;;5.90;99.90;;;;;;5052872;28;20090;-84
2023/04/25 06:12:06;;;;;;;6.32;1.73;;;5.90;99.90;;;;;;5053411;28;20670;-85
2023/04/25 06:14:32;;;;;;;9.23;1.85;;;5.90;99.90;;;;;;5053203;28;20049;-85
2023/04/25 06:16:58;;;;;;;8.63;1.88;;;6.00;99.90;;;;;;5051544;28;20163;-84
2023/04/25 06:19:23;;;;;;;6.15;1.60;;;6.30;99.90;;;;;;5051221;28;20127;-83
2023/04/25 06:21:49;;;;;;;6.93;1.67;;;6.50;99.90;;;;;;5052453;28;20045;-82
2023/04/25 06:24:14;;;;;;;9.23;1.63;;;6.60;99.90;;;;;;5052054;28;20044;-82
2023/04/25 06:26:40;;;;;;;9.48;2.05;;;6.80;99.90;;;;;;5051867;28;20111;-82
2023/04/25 06:29:06;;;;;;;11.43;2.00;;;6.70;99.90;;;;;;5052426;28;20044;-82
2023/04/25 06:31:34;;;;;;;5.70;1.48;;;6.60;99.90;;;;;;5051451;28;20040;-82
2023/04/25 06:33:59;;;;;;;4.78;1.23;;;6.60;99.90;;;;;;5051958;28;20127;-82
2023/04/25 06:36:27;;;;;;;7.45;1.65;;;6.60;99.90;;;;;;5051478;28;20111;-82
2023/04/25 06:38:54;;;;;;;7.03;1.63;;;6.60;99.90;;;;;;5052169;28;20045;-83
2023/04/25 06:41:20;;;;;;;8.10;1.73;;;6.60;99.90;;;;;;5051955;28;20044;-82
2023/04/25 06:43:45;;;;;;;6.28;1.40;;;6.50;99.90;;;;;;5052354;28;20124;-81
2023/04/25 06:46:11;;;;;;;6.93;1.20;;;6.50;99.90;;;;;;5053343;28;20104;-82
2023/04/25 06:48:37;;;;;;;7.85;1.50;;;6.50;99.90;;;;;;5052058;28;20033;-82
2023/04/25 06:51:03;;;;;;;4.82;1.30;;;6.50;99.90;;;;;;5035568;28;20037;-82
2023/04/25 06:53:28;;;;;;;14.93;1.70;;;6.40;99.90;;;;;;5053139;28;20507;-81
2023/04/25 06:55:54;;;;;;;6.50;1.40;;;6.50;99.90;;;;;;5060224;28;20071;-81
2023/04/25 06:58:19;;;;;;;8.85;2.08;;;6.50;99.90;;;;;;5060396;28;20099;-81
2023/04/25 07:00:45;;;;;;;6.97;1.25;;;6.50;99.90;;;;;;5052362;28;20040;-82
2023/04/25 07:03:10;;;;;;;8.75;1.83;;;6.40;99.90;;;;;;5053853;28;20478;-80
2023/04/25 07:05:36;;;;;;;9.63;1.88;;;6.40;99.90;;;;;;5054128;28;20041;-81
2023/04/25 07:08:02;;;;;;;5.55;1.58;;;6.40;99.90;;;;;;5053213;28;20040;-83
2023/04/25 07:10:28;;;;;;;8.85;1.50;;;6.60;99.90;;;;;;5052520;28;20401;-82
2023/04/25 07:12:53;;;;;;;5.93;1.20;;;6.70;99.90;;;;;;5054353;28;20040;-81
2023/04/25 07:15:19;;;;;;;6.43;1.58;;;6.90;99.90;;;;;;5051792;28;20041;-82
2023/04/25 07:17:45;;;;;;;6.75;1.52;;;7.10;99.90;;;;;;5051429;28;20048;-81
2023/04/25 07:20:11;;;;;;;7.55;2.05;;;7.20;99.90;;;;;;5051568;28;20033;-81
2023/04/25 07:22:36;;;;;;;4.68;1.00;;;7.20;99.90;;;;;;5051405;28;20066;-81
2023/04/25 07:25:03;;;;;;;7.18;1.60;;;7.20;99.90;;;;;;5053719;28;20424;-81
2023/04/25 07:27:30;;;;;;;6.72;1.45;;;7.20;99.90;;;;;;5052384;28;20178;-82
2023/04/25 07:29:55;;;;;;;6.38;1.30;;;7.20;99.90;;;;;;5050868;28;20029;-81
2023/04/25 07:32:21;;;;;;;11.93;1.65;;;7.30;99.90;;;;;;5052414;28;20255;-81
2023/04/25 07:34:47;;;;;;;8.48;1.73;;;7.40;99.90;;;;;;5067363;28;20143;-82
2023/04/25 07:37:13;;;;;;;5.93;1.20;;;7.30;99.90;;;;;;5052121;28;20130;-80
2023/04/25 07:39:39;;;;;;;6.20;1.65;;;7.30;99.90;;;;;;5052319;28;20048;-81
2023/04/25 07:42:07;;;;;;;6.70;1.80;;;7.40;99.90;;;;;;5052276;28;20032;-81
2023/04/25 07:44:38;;;;;;;7.95;1.48;;;7.50;99.90;;;;;;5051934;28;20041;-81
2023/04/25 07:47:07;;;;;;;7.90;1.30;;;7.50;99.90;;;;;;5052682;28;20072;-81
2023/04/25 07:49:37;;;;;;;6.80;1.73;;;7.50;99.90;;;;;;5053055;28;20105;-80
2023/04/25 07:52:03;;;;;;;6.78;1.70;;;7.50;99.90;;;;;;5052002;28;20127;-80
2023/04/25 07:54:29;;;;;;;5.43;1.60;;;7.50;99.90;;;;;;5053035;28;20044;-80
2023/04/25 07:56:55;;;;;;;5.07;1.10;;;7.30;99.90;;;;;;5067438;28;20496;-81
2023/04/25 07:59:21;;;;;;;5.78;1.20;;;7.20;99.90;;;;;;5051312;28;20610;-79
2023/04/25 08:01:47;;;;;;;4.18;1.02;;;7.10;99.90;;;;;;5051341;28;20087;-82
2023/04/25 08:04:13;;;;;;;4.80;1.30;;;7.00;99.90;;;;;;5051136;28;20073;-81
2023/04/25 08:06:38;;;;;;;6.22;1.30;;;7.10;99.90;;;;;;5051362;28;20064;-81
2023/04/25 08:09:04;;;;;;;7.85;1.63;;;7.40;99.90;;;;;;5053138;28;20071;-80
2023/04/25 08:11:30;;;;;;;5.63;1.33;;;7.80;99.90;;;;;;5051173;28;20048;-82
2023/04/25 08:13:55;;;;;;;5.22;1.35;;;8.10;99.90;;;;;;5052052;28;20049;-80
2023/04/25 08:16:22;;;;;;;4.75;0.90;;;8.20;99.90;;;;;;5051073;28;20076;-80
2023/04/25 08:18:47;;;;;;;3.10;0.73;;;8.30;99.90;;;;;;5050980;28;20047;-80
2023/04/25 08:21:13;;;;;;;2.47;1.15;;;7.40;99.90;;;;;;5053156;28;20049;-79
2023/04/25 08:23:39;;;;;;;2.45;0.70;;;6.60;99.90;;;;;;5053358;28;20045;-80
2023/04/25 08:26:05;;;;;;;4.68;0.80;;;6.20;99.90;;;;;;5052341;28;20045;-79
2023/04/25 08:28:31;;;;;;;1.52;0.70;;;5.90;99.90;;;;;;5050975;28;20048;-81
2023/04/25 08:30:57;;;;;;;2.90;0.73;;;5.70;99.90;;;;;;5051815;28;20048;-81
2023/04/25 08:33:22;;;;;;;2.63;1.15;;;5.70;99.90;;;;;;5052391;28;20040;-79
2023/04/25 08:35:48;;;;;;;4.35;1.10;;;6.00;99.90;;;;;;5052101;28;20115;-78
2023/04/25 08:38:14;;;;;;;3.58;0.80;;;6.30;99.90;;;;;;5055102;28;20033;-80
2023/04/25 08:40:40;;;;;;;3.80;1.20;;;6.50;99.90;;;;;;5053496;28;20037;-80
2023/04/25 08:43:11;;;;;;;5.95;1.13;;;6.70;99.90;;;;;;5052969;28;20127;-80
2023/04/25 08:45:42;;;;;;;2.78;0.77;;;6.60;99.90;;;;;;5054156;28;20121;-77
2023/04/25 08:48:11;;;;;;;4.38;1.00;;;6.40;99.90;;;;;;5055170;28;20393;-79
2023/04/25 08:50:49;;;;;;;4.93;0.82;;;5.90;99.90;;;;;;5055307;28;20537;-79
2023/04/25 08:53:19;;;;;;;3.25;1.10;;;5.80;99.90;;;;;;5055654;28;20041;-79
2023/04/25 08:55:46;;;;;;;3.00;0.75;;;5.80;99.90;;;;;;5061656;28;20043;-80
2023/04/25 08:58:12;;;;;;;3.63;0.98;;;6.00;99.90;;;;;;5062942;28;20393;-79
2023/04/25 09:00:38;;;;;;;3.15;0.73;;;6.10;99.90;;;;;;5055291;28;20078;-80
2023/04/25 09:03:05;;;;;;;3.40;0.70;;;6.20;99.90;;;;;;5054511;28;20037;-80
2023/04/25 09:05:35;;;;;;;2.08;0.70;;;6.50;99.90;;;;;;5055896;28;20044;-80
2023/04/25 09:08:01;;;;;;;4.00;0.80;;;6.80;99.90;;;;;;5054889;28;20037;-80
2023/04/25 09:10:27;;;;;;;4.15;0.88;;;7.00;99.90;;;;;;5055850;28;20045;-79
2023/04/25 09:13:06;;;;;;;5.00;1.00;;;7.30;99.90;;;;;;5056589;28;20522;-79
2023/04/25 09:15:32;;;;;;;4.40;1.15;;;7.50;99.90;;;;;;5054291;28;20098;-80
2023/04/25 09:18:01;;;;;;;6.80;1.20;;;7.80;99.90;;;;;;5054871;28;20068;-79
2023/04/25 09:20:27;;;;;;;5.72;1.00;;;8.00;99.90;;;;;;5055362;28;20084;-80
2023/04/25 09:23:05;;;;;;;5.47;1.15;;;8.30;99.90;;;;;;5055483;28;20595;-77
2023/04/25 09:25:36;;;;;;;10.07;1.30;;;8.50;99.90;;;;;;5055592;28;20045;-79
2023/04/25 09:28:05;;;;;;;7.88;1.80;;;8.70;99.90;;;;;;5055168;28;20116;-79
2023/04/25 09:30:32;;;;;;;12.45;1.40;;;8.90;99.90;;;;;;5055008;28;20079;-79
2023/04/25 09:33:05;;;;;;;7.90;1.42;;;9.10;99.90;;;;;;5055153;28;20554;-78
2023/04/25 09:35:45;;;;;;;6.43;1.40;;;9.10;99.90;;;;;;5052447;28;20271;-78
2023/04/25 09:38:14;;;;;;;7.22;1.45;;;8.80;99.90;;;;;;5052223;28;20040;-78
2023/04/25 09:40:41;;;;;;;6.22;1.40;;;8.40;99.90;;;;;;5053259;28;20037;-78
2023/04/25 09:43:18;;;;;;;10.57;1.75;;;8.00;99.90;;;;;;5056122;28;20108;-79
2023/04/25 09:45:45;;;;;;;8.27;1.60;;;7.80;99.90;;;;;;5053486;28;20053;-78
2023/04/25 09:48:18;;;;;;;7.03;1.23;;;7.70;99.90;;;;;;5053038;28;20048;-79
2023/04/25 09:50:43;;;;;;;5.93;1.15;;;7.80;99.90;;;;;;5053156;28;20539;-77
2023/04/25 09:53:09;;;;;;;6.05;1.27;;;8.00;99.90;;;;;;5052674;28;20044;-79
2023/04/25 09:55:36;;;;;;;5.15;1.17;;;8.40;99.90;;;;;;5057721;28;20037;-80
2023/04/25 09:58:08;;;;;;;5.38;1.10;;;8.80;99.90;;;;;;5061325;28;20095;-77
2023/04/25 10:00:35;;;;;;;6.60;1.40;;;9.00;99.90;;;;;;5053001;28;20526;-78
2023/04/25 10:03:05;;;;;;;6.28;1.30;;;9.00;99.90;;;;;;5053884;28;20033;-79
2023/04/25 10:05:35;;;;;;;5.68;1.27;;;9.10;99.90;;;;;;5054842;28;20051;-79
2023/04/25 10:08:03;;;;;;;5.93;1.20;;;9.30;99.90;;;;;;5052015;28;20041;-78
2023/04/25 10:10:32;;;;;;;6.28;1.10;;;9.20;99.90;;;;;;5052103;28;20041;-75
2023/04/25 10:12:58;;;;;;;7.32;1.27;;;9.20;99.90;;;;;;5052836;28;20059;-78
2023/04/25 10:15:24;;;;;;;4.70;1.48;;;9.30;99.90;;;;;;5051430;28;20072;-76
2023/04/25 10:17:50;;;;;;;5.32;1.25;;;9.50;99.90;;;;;;5050911;28;20040;-77
2023/04/25 10:20:16;;;;;;;7.05;1.77;;;9.30;99.90;;;;;;5051370;28;20045;-76
2023/04/25 10:22:45;;;;;;;7.82;1.70;;;9.10;99.90;;;;;;5052505;28;20040;-77
2023/04/25 10:25:12;;;;;;;6.75;1.67;;;8.90;99.90;;;;;;5052488;28;20088;-77
2023/04/25 10:27:38;;;;;;;5.57;1.20;;;8.70;99.90;;;;;;5050733;28;20037;-76
2023/04/25 10:30:10;;;;;;;3.75;1.35;;;8.40;99.90;;;;;;5051265;28;20056;-77
2023/04/25 10:32:36;;;;;;;9.15;1.88;;;8.30;99.90;;;;;;5051359;28;20040;-78
2023/04/25 10:35:11;;;;;;;7.13;1.20;;;8.60;99.90;;;;;;5052497;28;20051;-77
2023/04/25 10:37:36;;;;;;;5.78;1.63;;;9.00;99.90;;;;;;5052249;28;20076;-77
2023/04/25 10:40:10;;;;;;;7.55;1.30;;;9.50;99.90;;;;;;5051459;28;20037;-78
2023/04/25 10:42:35;;;;;;;5.82;1.33;;;10.00;99.90;;;;;;5052621;28;20041;-78
2023/04/25 10:45:05;;;;;;;6.05;1.05;;;10.20;99.90;;;;;;5050847;28;20089;-76
2023/04/25 10:47:44;;;;;;;8.18;1.33;;;9.90;99.90;;;;;;5052175;28;20059;-78
2023/04/25 10:50:10;;;;;;;7.38;1.70;;;10.10;99.90;;;;;;5050811;28;20044;-75
2023/04/25 10:52:38;;;;;;;7.15;1.48;;;10.00;99.90;;;;;;5051987;28;20045;-78
2023/04/25 10:55:04;;;;;;;8.10;1.80;;;9.70;99.90;;;;;;5050896;28;20045;-75
2023/04/25 10:57:39;;;;;;;6.93;1.75;;;9.60;99.90;;;;;;5066500;28;20045;-78
2023/04/25 11:00:11;;;;;;;7.80;1.60;;;9.70;99.90;;;;;;5053122;28;20043;-79
2023/04/25 11:02:40;;;;;;;5.65;1.35;;;9.90;99.90;;;;;;5051576;28;20500;-77
2023/04/25 11:05:07;;;;;;;8.18;1.73;;;9.80;99.90;;;;;;5051112;28;20115;-77
2023/04/25 11:07:51;;;;;;;6.47;1.42;;;9.80;99.90;;;;;;5050574;28;20048;-75
2023/04/25 11:10:17;;;;;;;9.73;2.10;;;9.80;99.90;;;;;;5033803;28;20047;-76
2023/04/25 11:12:44;;;;;;;7.22;1.33;;;9.90;99.90;;;;;;5051498;28;20041;-76
2023/04/25 11:15:10;;;;;;;4.78;1.63;;;10.00;99.90;;;;;;5051631;28;20477;-76
2023/04/25 11:17:35;;;;;;;9.57;1.58;;;10.10;99.90;;;;;;5049975;28;20087;-75
2023/04/25 11:20:02;;;;;;;7.88;1.40;;;10.20;99.90;;;;;;5051498;28;20048;-76
2023/04/25 11:22:28;;;;;;;5.30;1.35;;;10.20;99.90;;;;;;5050034;28;20041;-77
2023/04/25 11:24:54;;;;;;;6.18;1.20;;;10.50;99.90;;;;;;5051387;28;20481;-77
2023/04/25 11:27:20;;;;;;;5.95;1.25;;;10.50;99.90;;;;;;5051379;28;20051;-77
2023/04/25 11:29:47;;;;;;;6.03;1.40;;;10.40;99.90;;;;;;5051079;28;20561;-76
2023/04/25 11:32:15;;;;;;;6.45;1.42;;;10.30;99.90;;;;;;5050135;28;20455;-76
2023/04/25 11:34:43;;;;;;;6.70;1.40;;;10.60;99.90;;;;;;5051151;28;20037;-75
2023/04/25 11:37:11;;;;;;;9.15;1.75;;;10.40;99.90;;;;;;5049754;28;20053;-77
2023/04/25 11:39:37;;;;;;;4.57;1.13;;;10.00;99.90;;;;;;5051253;28;20037;-76
2023/04/25 11:42:04;;;;;;;6.40;1.10;;;9.90;99.90;;;;;;5051313;28;20041;-76
2023/04/25 11:44:30;;;;;;;8.15;1.33;;;10.10;99.90;;;;;;5051180;28;20079;-78
2023/04/25 11:46:55;;;;;;;5.70;1.35;;;10.10;99.90;;;;;;5050089;28;20041;-76
2023/04/25 11:49:21;;;;;;;5.07;1.20;;;10.30;99.90;;;;;;5050418;28;20045;-76
2023/04/25 11:51:48;;;;;;;7.43;1.63;;;10.50;99.90;;;;;;5049834;28;20053;-77
2023/04/25 11:54:15;;;;;;;4.93;1.33;;;10.30;99.90;;;;;;5050393;28;20048;-77
2023/04/25 11:56:45;;;;;;;7.15;1.20;;;10.50;99.90;;;;;;5063813;28;20079;-76
2023/04/25 11:59:11;;;;;;;5.07;1.38;;;10.50;99.90;;;;;;5066217;28;20052;-77
2023/04/25 12:01:38;;;;;;;6.05;1.50;;;10.60;99.90;;;;;;5051766;28;20088;-78
2023/04/25 12:04:21;;;;;;;5.13;1.40;;;10.80;99.90;;;;;;5050562;28;20083;-78
2023/04/25 12:06:50;;;;;;;6.13;1.10;;;10.80;99.90;;;;;;5050528;28;20383;-77
2023/04/25 12:09:18;;;;;;;8.38;1.40;;;11.10;99.90;;;;;;5053506;28;20271;-77
2023/04/25 12:11:45;;;;;;;7.10;1.42;;;11.10;99.90;;;;;;5054457;28;20389;-77
2023/04/25 12:14:12;;;;;;;9.50;1.45;;;10.80;99.90;;;;;;5051805;28;20125;-78
2023/04/25 12:16:46;;;;;;;7.50;1.20;;;10.50;99.90;;;;;;5053410;28;20361;-78
2023/04/25 12:19:16;;;;;;;9.88;1.35;;;10.30;99.90;;;;;;5056011;28;20487;-79
2023/04/25 12:21:42;;;;;;;5.70;1.60;;;9.80;99.90;;;;;;5056306;28;20049;-78
2023/04/25 12:24:13;;;;;;;8.18;1.35;;;9.80;99.90;;;;;;5056816;28;20037;-79
2023/04/25 12:26:52;;;;;;;5.22;1.02;;;9.50;99.90;;;;;;5056612;28;20045;-76
2023/04/25 12:29:20;;;;;;;5.25;1.20;;;9.50;99.90;;;;;;5055560;28;20060;-81
2023/04/25 12:31:46;;;;;;;9.63;1.63;;;9.30;99.90;;;;;;5055933;28;20067;-80
2023/04/25 12:34:12;;;;;;;5.30;1.10;;;9.10;99.90;;;;;;5056780;28;20091;-77
2023/04/25 12:36:38;;;;;;;8.30;1.45;;;9.20;99.90;;;;;;5057333;28;20036;-79
2023/04/25 12:39:04;;;;;;;4.93;1.35;;;9.20;99.90;;;;;;5054964;28;20602;-79
2023/04/25 12:41:30;;;;;;;9.68;2.08;;;9.10;99.90;;;;;;5055327;28;20037;-78
2023/04/25 12:43:55;;;;;;;9.23;1.80;;;9.50;99.90;;;;;;5057234;28;20041;-80
2023/04/25 12:46:22;;;;;;;7.63;1.20;;;9.40;99.90;;;;;;5056418;28;20041;-78
2023/04/25 12:48:48;;;;;;;17.50;2.25;;;9.50;99.90;;;;;;5055551;28;20405;-80
2023/04/25 12:51:13;;;;;;;7.65;1.80;;;9.40;99.90;;;;;;5056894;28;20041;-79